sensor_id;sensor_type;location;lat;lon;timestamp;pressure;altitude;pressure_sealevel;temperature;humidity
36538;BME280;22545;48.892;9.138;2022-09-27T00:00:34;96299.41;;;10.10;100.00
36538;BME280;22545;48.892;9.138;2022-09-27T00:02:59;96296.41;;;10.18;100.00
36538;BME280;22545;48.892;9.138;2022-09-27T00:05:25;96293.28;;;10.13;100.00
36538;BME280;22545;48.892;9.138;2022-09-27T00:07:50;96292.38;;;10.14;100.00
36538;BME280;22545;48.892;9.138;2022-09-27T00:10:16;96286.94;;;10.18;100.00
36538;BME280;22545;48.892;9.138;2022-09-27T00:12:41;96290.81;;;10.11;100.00
36538;BME280;22545;48.892;9.138;2022-09-27T00:15:07;96293.38;;;10.11;100.00
36538;BME280;22545;48.892;9.138;2022-09-27T00:17:33;96294.09;;;10.13;100.00
36538;BME280;22545;48.892;9.138;2022-09-27T00:19:59;96286.38;;;10.13;100.00
36538;BME280;22545;48.892;9.138;2022-09-27T00:22:24;96294.03;;;10.15;100.00
36538;BME280;22545;48.892;9.138;2022-09-27T00:24:50;96286.47;;;10.12;100.00
36538;BME280;22545;48.892;9.138;2022-09-27T00:27:16;96290.28;;;10.06;100.00
36538;BME280;22545;48.892;9.138;2022-09-27T00:29:41;96282.78;;;10.03;100.00
36538;BME280;22545;48.892;9.138;2022-09-27T00:32:07;96279.06;;;10.07;100.00
36538;BME280;22545;48.892;9.138;2022-09-27T00:34:32;96282.59;;;10.06;100.00
36538;BME280;22545;48.892;9.138;2022-09-27T00:36:57;96288.63;;;10.05;100.00
36538;BME280;22545;48.892;9.138;2022-09-27T00:39:23;96277.06;;;10.12;100.00
36538;BME280;22545;48.892;9.138;2022-09-27T00:41:48;96287.13;;;10.15;100.00
36538;BME280;22545;48.892;9.138;2022-09-27T00:49:45;96279.31;;;10.17;100.00
36538;BME280;22545;48.892;9.138;2022-09-27T00:52:17;96287.84;;;10.17;100.00
36538;BME280;22545;48.892;9.138;2022-09-27T00:54:49;96282.50;;;10.20;100.00
36538;BME280;22545;48.892;9.138;2022-09-27T00:57:16;96283.19;;;10.09;100.00
36538;BME280;22545;48.892;9.138;2022-09-27T00:59:45;96281.19;;;10.27;100.00
36538;BME280;22545;48.892;9.138;2022-09-27T01:02:11;96281.44;;;10.10;100.00
36538;BME280;22545;48.892;9.138;2022-09-27T01:04:37;96269.19;;;10.01;100.00
36538;BME280;22545;48.892;9.138;2022-09-27T01:07:02;96266.47;;;10.17;100.00
36538;BME280;22545;48.892;9.138;2022-09-27T01:09:28;96266.53;;;10.02;100.00
36538;BME280;22545;48.892;9.138;2022-09-27T01:12:04;96270.81;;;10.16;100.00
36538;BME280;22545;48.892;9.138;2022-09-27T01:30:27;96276.09;;;10.13;100.00
36538;BME280;22545;48.892;9.138;2022-09-27T01:35:57;96275.28;;;10.13;100.00
36538;BME280;22545;48.892;9.138;2022-09-27T01:41:26;96270.03;;;10.01;100.00
36538;BME280;22545;48.892;9.138;2022-09-27T01:44:01;96273.22;;;10.05;100.00
36538;BME280;22545;48.892;9.138;2022-09-27T01:46:32;96264.06;;;10.01;100.00
36538;BME280;22545;48.892;9.138;2022-09-27T01:49:01;96266.22;;;10.07;100.00
36538;BME280;22545;48.892;9.138;2022-09-27T01:51:29;96261.94;;;10.07;100.00
36538;BME280;22545;48.892;9.138;2022-09-27T01:53:57;96270.16;;;10.13;100.00
36538;BME280;22545;48.892;9.138;2022-09-27T01:56:46;96267.38;;;10.16;100.00
36538;BME280;22545;48.892;9.138;2022-09-27T01:59:12;96271.66;;;10.02;100.00
36538;BME280;22545;48.892;9.138;2022-09-27T02:01:38;96272.50;;;10.03;100.00
36538;BME280;22545;48.892;9.138;2022-09-27T02:04:06;96268.91;;;10.05;100.00
36538;BME280;22545;48.892;9.138;2022-09-27T02:06:33;96276.06;;;10.27;100.00
36538;BME280;22545;48.892;9.138;2022-09-27T02:11:25;96277.38;;;10.20;100.00
36538;BME280;22545;48.892;9.138;2022-09-27T02:13:59;96276.47;;;10.21;100.00
36538;BME280;22545;48.892;9.138;2022-09-27T02:21:59;96289.75;;;10.01;100.00
36538;BME280;22545;48.892;9.138;2022-09-27T02:24:37;96311.06;;;9.88;100.00
36538;BME280;22545;48.892;9.138;2022-09-27T02:27:17;96308.41;;;9.90;100.00
36538;BME280;22545;48.892;9.138;2022-09-27T02:29:48;96308.00;;;9.96;100.00
36538;BME280;22545;48.892;9.138;2022-09-27T02:32:17;96311.75;;;10.05;100.00
36538;BME280;22545;48.892;9.138;2022-09-27T02:34:42;96317.59;;;10.07;100.00
36538;BME280;22545;48.892;9.138;2022-09-27T02:37:08;96315.88;;;10.07;100.00
36538;BME280;22545;48.892;9.138;2022-09-27T02:39:34;96308.47;;;10.03;100.00
36538;BME280;22545;48.892;9.138;2022-09-27T02:41:59;96311.53;;;9.81;100.00
36538;BME280;22545;48.892;9.138;2022-09-27T02:44:25;96298.78;;;9.79;100.00
36538;BME280;22545;48.892;9.138;2022-09-27T02:54:32;96322.66;;;9.67;100.00
36538;BME280;22545;48.892;9.138;2022-09-27T03:02:09;96319.56;;;9.33;100.00
36538;BME280;22545;48.892;9.138;2022-09-27T03:07:03;96322.50;;;9.41;100.00
36538;BME280;22545;48.892;9.138;2022-09-27T03:09:39;96318.00;;;9.30;100.00
36538;BME280;22545;48.892;9.138;2022-09-27T03:12:05;96322.97;;;9.33;100.00
36538;BME280;22545;48.892;9.138;2022-09-27T03:14:30;96321.75;;;9.39;100.00
36538;BME280;22545;48.892;9.138;2022-09-27T03:16:56;96318.66;;;9.34;100.00
36538;BME280;22545;48.892;9.138;2022-09-27T03:19:22;96333.47;;;9.29;100.00
36538;BME280;22545;48.892;9.138;2022-09-27T03:21:48;96337.06;;;9.26;100.00
36538;BME280;22545;48.892;9.138;2022-09-27T03:24:13;96345.75;;;9.09;100.00
36538;BME280;22545;48.892;9.138;2022-09-27T03:26:39;96338.53;;;9.16;100.00
36538;BME280;22545;48.892;9.138;2022-09-27T03:29:04;96337.91;;;9.12;100.00
36538;BME280;22545;48.892;9.138;2022-09-27T03:31:29;96351.72;;;9.24;100.00
36538;BME280;22545;48.892;9.138;2022-09-27T03:33:54;96343.28;;;9.22;100.00
36538;BME280;22545;48.892;9.138;2022-09-27T03:36:20;96342.94;;;9.14;100.00
36538;BME280;22545;48.892;9.138;2022-09-27T03:38:45;96334.41;;;9.13;100.00
36538;BME280;22545;48.892;9.138;2022-09-27T03:41:10;96352.19;;;9.31;100.00
36538;BME280;22545;48.892;9.138;2022-09-27T03:43:35;96355.50;;;9.18;100.00
36538;BME280;22545;48.892;9.138;2022-09-27T03:46:01;96336.06;;;9.14;100.00
36538;BME280;22545;48.892;9.138;2022-09-27T03:48:26;96352.16;;;9.16;100.00
36538;BME280;22545;48.892;9.138;2022-09-27T03:50:51;96348.22;;;9.11;100.00
36538;BME280;22545;48.892;9.138;2022-09-27T03:53:16;96357.75;;;9.09;100.00
36538;BME280;22545;48.892;9.138;2022-09-27T03:55:44;96356.00;;;9.09;100.00
36538;BME280;22545;48.892;9.138;2022-09-27T03:58:09;96347.97;;;9.15;100.00
36538;BME280;22545;48.892;9.138;2022-09-27T04:00:34;96350.28;;;9.20;100.00
36538;BME280;22545;48.892;9.138;2022-09-27T04:03:00;96345.78;;;9.24;100.00
36538;BME280;22545;48.892;9.138;2022-09-27T04:05:26;96357.03;;;9.21;100.00
36538;BME280;22545;48.892;9.138;2022-09-27T04:07:51;96360.78;;;9.30;100.00
36538;BME280;22545;48.892;9.138;2022-09-27T04:10:17;96358.06;;;9.47;100.00
36538;BME280;22545;48.892;9.138;2022-09-27T04:12:42;96358.50;;;9.25;100.00
36538;BME280;22545;48.892;9.138;2022-09-27T04:15:08;96357.13;;;9.48;100.00
36538;BME280;22545;48.892;9.138;2022-09-27T04:17:34;96357.31;;;9.45;100.00
36538;BME280;22545;48.892;9.138;2022-09-27T04:19:59;96361.69;;;9.29;100.00
36538;BME280;22545;48.892;9.138;2022-09-27T04:22:27;96357.13;;;9.34;100.00
36538;BME280;22545;48.892;9.138;2022-09-27T04:24:52;96370.06;;;9.32;100.00
36538;BME280;22545;48.892;9.138;2022-09-27T04:27:18;96362.09;;;9.37;100.00
36538;BME280;22545;48.892;9.138;2022-09-27T04:29:43;96365.13;;;9.29;100.00
36538;BME280;22545;48.892;9.138;2022-09-27T04:32:10;96363.91;;;9.20;100.00
36538;BME280;22545;48.892;9.138;2022-09-27T04:34:35;96371.25;;;9.41;100.00
36538;BME280;22545;48.892;9.138;2022-09-27T04:37:19;96375.28;;;9.45;100.00
36538;BME280;22545;48.892;9.138;2022-09-27T04:39:44;96367.03;;;9.40;100.00
36538;BME280;22545;48.892;9.138;2022-09-27T04:42:09;96371.97;;;9.29;100.00
36538;BME280;22545;48.892;9.138;2022-09-27T04:44:34;96373.16;;;9.37;100.00
36538;BME280;22545;48.892;9.138;2022-09-27T04:47:00;96382.88;;;9.32;100.00
36538;BME280;22545;48.892;9.138;2022-09-27T04:49:25;96383.06;;;9.44;100.00
36538;BME280;22545;48.892;9.138;2022-09-27T04:51:50;96386.09;;;9.21;100.00
36538;BME280;22545;48.892;9.138;2022-09-27T04:54:15;96391.13;;;9.23;100.00
36538;BME280;22545;48.892;9.138;2022-09-27T04:56:41;96394.31;;;9.12;100.00
36538;BME280;22545;48.892;9.138;2022-09-27T04:59:07;96382.59;;;9.23;100.00
36538;BME280;22545;48.892;9.138;2022-09-27T05:01:33;96391.75;;;9.27;100.00
36538;BME280;22545;48.892;9.138;2022-09-27T05:03:59;96394.59;;;9.22;100.00
36538;BME280;22545;48.892;9.138;2022-09-27T05:06:24;96398.56;;;9.42;100.00
36538;BME280;22545;48.892;9.138;2022-09-27T05:08:49;96407.63;;;9.33;100.00
36538;BME280;22545;48.892;9.138;2022-09-27T05:11:15;96410.75;;;9.38;100.00
36538;BME280;22545;48.892;9.138;2022-09-27T05:13:40;96413.09;;;9.27;100.00
36538;BME280;22545;48.892;9.138;2022-09-27T05:16:05;96411.09;;;9.32;100.00
36538;BME280;22545;48.892;9.138;2022-09-27T05:18:31;96418.06;;;9.30;100.00
36538;BME280;22545;48.892;9.138;2022-09-27T05:20:56;96426.19;;;9.23;100.00
36538;BME280;22545;48.892;9.138;2022-09-27T05:23:23;96431.69;;;9.16;100.00
36538;BME280;22545;48.892;9.138;2022-09-27T05:25:48;96435.00;;;9.18;100.00
36538;BME280;22545;48.892;9.138;2022-09-27T05:28:13;96434.66;;;9.25;100.00
36538;BME280;22545;48.892;9.138;2022-09-27T05:30:39;96448.19;;;9.27;100.00
36538;BME280;22545;48.892;9.138;2022-09-27T05:33:04;96437.94;;;9.27;100.00
36538;BME280;22545;48.892;9.138;2022-09-27T05:35:29;96448.09;;;9.14;100.00
36538;BME280;22545;48.892;9.138;2022-09-27T05:37:57;96457.13;;;9.05;100.00
36538;BME280;22545;48.892;9.138;2022-09-27T05:40:23;96464.56;;;9.10;100.00
36538;BME280;22545;48.892;9.138;2022-09-27T05:42:50;96457.06;;;9.21;100.00
36538;BME280;22545;48.892;9.138;2022-09-27T05:45:15;96467.13;;;9.10;100.00
36538;BME280;22545;48.892;9.138;2022-09-27T05:47:41;96459.91;;;9.16;100.00
36538;BME280;22545;48.892;9.138;2022-09-27T05:50:06;96462.63;;;9.13;100.00
36538;BME280;22545;48.892;9.138;2022-09-27T05:52:32;96470.41;;;9.12;100.00
36538;BME280;22545;48.892;9.138;2022-09-27T05:54:58;96467.84;;;9.12;100.00
36538;BME280;22545;48.892;9.138;2022-09-27T05:57:24;96461.91;;;9.11;100.00
36538;BME280;22545;48.892;9.138;2022-09-27T05:59:49;96464.75;;;9.21;100.00
36538;BME280;22545;48.892;9.138;2022-09-27T06:02:14;96465.19;;;9.13;100.00
36538;BME280;22545;48.892;9.138;2022-09-27T06:04:39;96469.97;;;9.19;100.00
36538;BME280;22545;48.892;9.138;2022-09-27T06:07:05;96483.38;;;9.25;100.00
36538;BME280;22545;48.892;9.138;2022-09-27T06:09:30;96481.56;;;9.27;100.00
36538;BME280;22545;48.892;9.138;2022-09-27T06:11:55;96493.34;;;9.15;100.00
36538;BME280;22545;48.892;9.138;2022-09-27T06:14:20;96497.66;;;9.29;100.00
36538;BME280;22545;48.892;9.138;2022-09-27T06:16:46;96497.59;;;9.30;100.00
36538;BME280;22545;48.892;9.138;2022-09-27T06:19:12;96510.63;;;9.42;100.00
36538;BME280;22545;48.892;9.138;2022-09-27T06:21:37;96510.13;;;9.20;100.00
36538;BME280;22545;48.892;9.138;2022-09-27T06:24:02;96512.06;;;9.31;100.00
36538;BME280;22545;48.892;9.138;2022-09-27T06:26:28;96516.59;;;9.42;100.00
36538;BME280;22545;48.892;9.138;2022-09-27T06:28:53;96522.28;;;9.47;100.00
36538;BME280;22545;48.892;9.138;2022-09-27T06:31:19;96515.59;;;9.45;100.00
36538;BME280;22545;48.892;9.138;2022-09-27T06:33:45;96520.47;;;9.49;100.00
36538;BME280;22545;48.892;9.138;2022-09-27T06:36:11;96527.44;;;9.47;100.00
36538;BME280;22545;48.892;9.138;2022-09-27T06:38:36;96525.25;;;9.55;100.00
36538;BME280;22545;48.892;9.138;2022-09-27T06:41:02;96529.22;;;9.76;100.00
36538;BME280;22545;48.892;9.138;2022-09-27T06:43:28;96531.16;;;10.01;100.00
36538;BME280;22545;48.892;9.138;2022-09-27T06:45:54;96533.38;;;9.92;100.00
36538;BME280;22545;48.892;9.138;2022-09-27T06:48:19;96539.75;;;9.71;100.00
36538;BME280;22545;48.892;9.138;2022-09-27T06:50:45;96537.72;;;9.62;100.00
36538;BME280;22545;48.892;9.138;2022-09-27T06:53:12;96543.19;;;9.55;100.00
36538;BME280;22545;48.892;9.138;2022-09-27T06:55:38;96558.16;;;9.33;100.00
36538;BME280;22545;48.892;9.138;2022-09-27T06:58:03;96555.16;;;9.41;100.00
36538;BME280;22545;48.892;9.138;2022-09-27T07:00:48;96562.94;;;9.39;100.00
36538;BME280;22545;48.892;9.138;2022-09-27T07:03:13;96564.69;;;9.38;100.00
36538;BME280;22545;48.892;9.138;2022-09-27T07:05:39;96567.56;;;9.48;100.00
36538;BME280;22545;48.892;9.138;2022-09-27T07:08:10;96567.44;;;9.19;100.00
36538;BME280;22545;48.892;9.138;2022-09-27T07:10:36;96567.22;;;8.92;100.00
36538;BME280;22545;48.892;9.138;2022-09-27T07:13:09;96568.78;;;9.11;100.00
36538;BME280;22545;48.892;9.138;2022-09-27T07:15:35;96571.84;;;9.17;100.00
36538;BME280;22545;48.892;9.138;2022-09-27T07:18:01;96571.03;;;9.17;100.00
36538;BME280;22545;48.892;9.138;2022-09-27T07:20:27;96584.50;;;9.36;100.00
36538;BME280;22545;48.892;9.138;2022-09-27T07:22:55;96576.63;;;9.39;100.00
36538;BME280;22545;48.892;9.138;2022-09-27T07:25:21;96574.25;;;9.20;100.00
36538;BME280;22545;48.892;9.138;2022-09-27T07:27:47;96587.88;;;9.37;100.00
36538;BME280;22545;48.892;9.138;2022-09-27T07:30:12;96582.28;;;9.61;100.00
36538;BME280;22545;48.892;9.138;2022-09-27T07:32:38;96583.28;;;9.58;100.00
36538;BME280;22545;48.892;9.138;2022-09-27T07:35:04;96585.69;;;9.45;100.00
36538;BME280;22545;48.892;9.138;2022-09-27T07:37:30;96595.56;;;9.37;100.00
36538;BME280;22545;48.892;9.138;2022-09-27T07:39:56;96597.06;;;9.41;100.00
36538;BME280;22545;48.892;9.138;2022-09-27T07:42:21;96600.44;;;9.42;100.00
36538;BME280;22545;48.892;9.138;2022-09-27T07:44:47;96590.25;;;9.56;100.00
36538;BME280;22545;48.892;9.138;2022-09-27T07:47:12;96603.47;;;9.48;100.00
36538;BME280;22545;48.892;9.138;2022-09-27T07:49:37;96607.38;;;9.55;100.00
36538;BME280;22545;48.892;9.138;2022-09-27T07:52:02;96595.28;;;10.02;100.00
36538;BME280;22545;48.892;9.138;2022-09-27T07:54:27;96603.69;;;10.78;100.00
36538;BME280;22545;48.892;9.138;2022-09-27T07:56:53;96593.06;;;10.97;100.00
36538;BME280;22545;48.892;9.138;2022-09-27T07:59:19;96603.72;;;12.00;100.00
36538;BME280;22545;48.892;9.138;2022-09-27T08:01:45;96598.63;;;13.13;100.00
36538;BME280;22545;48.892;9.138;2022-09-27T08:04:10;96603.13;;;14.06;100.00
36538;BME280;22545;48.892;9.138;2022-09-27T08:06:35;96605.78;;;14.96;100.00
36538;BME280;22545;48.892;9.138;2022-09-27T08:09:04;96602.63;;;15.36;100.00
36538;BME280;22545;48.892;9.138;2022-09-27T08:11:29;96601.69;;;14.71;100.00
36538;BME280;22545;48.892;9.138;2022-09-27T08:13:54;96601.84;;;13.65;100.00
36538;BME280;22545;48.892;9.138;2022-09-27T08:16:21;96612.91;;;12.30;100.00
36538;BME280;22545;48.892;9.138;2022-09-27T08:18:46;96620.84;;;12.14;100.00
36538;BME280;22545;48.892;9.138;2022-09-27T08:21:11;96622.06;;;12.08;100.00
36538;BME280;22545;48.892;9.138;2022-09-27T08:23:36;96631.03;;;12.80;100.00
36538;BME280;22545;48.892;9.138;2022-09-27T08:26:02;96636.91;;;14.27;100.00
36538;BME280;22545;48.892;9.138;2022-09-27T08:28:27;96639.88;;;15.13;100.00
36538;BME280;22545;48.892;9.138;2022-09-27T08:30:53;96638.25;;;15.12;100.00
36538;BME280;22545;48.892;9.138;2022-09-27T08:33:18;96649.31;;;13.99;100.00
36538;BME280;22545;48.892;9.138;2022-09-27T08:35:44;96645.59;;;14.26;100.00
36538;BME280;22545;48.892;9.138;2022-09-27T08:38:09;96653.47;;;14.24;100.00
36538;BME280;22545;48.892;9.138;2022-09-27T08:40:56;96661.94;;;13.91;100.00
36538;BME280;22545;48.892;9.138;2022-09-27T08:43:27;96660.66;;;13.85;100.00
36538;BME280;22545;48.892;9.138;2022-09-27T08:48:30;96671.81;;;12.49;100.00
36538;BME280;22545;48.892;9.138;2022-09-27T08:50:55;96666.72;;;12.34;100.00
36538;BME280;22545;48.892;9.138;2022-09-27T08:53:22;96664.47;;;12.17;100.00
36538;BME280;22545;48.892;9.138;2022-09-27T08:55:50;96662.44;;;11.95;100.00
36538;BME280;22545;48.892;9.138;2022-09-27T08:58:29;96669.38;;;11.80;100.00
36538;BME280;22545;48.892;9.138;2022-09-27T09:00:56;96658.75;;;11.72;100.00
36538;BME280;22545;48.892;9.138;2022-09-27T09:03:23;96667.00;;;11.77;100.00
36538;BME280;22545;48.892;9.138;2022-09-27T09:06:01;96670.69;;;11.45;100.00
36538;BME280;22545;48.892;9.138;2022-09-27T09:16:29;96671.63;;;11.72;100.00
36538;BME280;22545;48.892;9.138;2022-09-27T09:19:18;96673.13;;;11.89;100.00
36538;BME280;22545;48.892;9.138;2022-09-27T09:26:46;96677.44;;;13.91;100.00
36538;BME280;22545;48.892;9.138;2022-09-27T09:29:18;96671.50;;;14.48;100.00
36538;BME280;22545;48.892;9.138;2022-09-27T09:34:42;96671.44;;;14.73;100.00
36538;BME280;22545;48.892;9.138;2022-09-27T09:37:18;96664.50;;;14.96;100.00
36538;BME280;22545;48.892;9.138;2022-09-27T09:39:47;96666.41;;;14.71;100.00
36538;BME280;22545;48.892;9.138;2022-09-27T09:42:29;96664.09;;;14.44;100.00
36538;BME280;22545;48.892;9.138;2022-09-27T09:44:59;96660.34;;;14.59;100.00
36538;BME280;22545;48.892;9.138;2022-09-27T09:47:28;96662.00;;;14.60;100.00
36538;BME280;22545;48.892;9.138;2022-09-27T09:50:02;96659.53;;;15.15;100.00
36538;BME280;22545;48.892;9.138;2022-09-27T09:52:31;96653.28;;;16.26;100.00
36538;BME280;22545;48.892;9.138;2022-09-27T09:55:11;96653.47;;;16.35;100.00
36538;BME280;22545;48.892;9.138;2022-09-27T09:57:41;96637.50;;;17.61;85.45
36538;BME280;22545;48.892;9.138;2022-09-27T10:00:14;96632.53;;;18.36;76.06
36538;BME280;22545;48.892;9.138;2022-09-27T10:02:44;96633.91;;;17.23;82.84
36538;BME280;22545;48.892;9.138;2022-09-27T10:05:17;96633.94;;;15.77;99.19
36538;BME280;22545;48.892;9.138;2022-09-27T10:07:43;96631.66;;;15.51;100.00
36538;BME280;22545;48.892;9.138;2022-09-27T10:10:10;96626.59;;;15.61;100.00
36538;BME280;22545;48.892;9.138;2022-09-27T10:12:37;96633.00;;;14.68;100.00
36538;BME280;22545;48.892;9.138;2022-09-27T10:15:03;96626.13;;;14.78;100.00
36538;BME280;22545;48.892;9.138;2022-09-27T10:17:34;96627.47;;;14.14;100.00
36538;BME280;22545;48.892;9.138;2022-09-27T10:20:00;96630.44;;;13.86;100.00
36538;BME280;22545;48.892;9.138;2022-09-27T10:22:37;96635.44;;;13.76;100.00
36538;BME280;22545;48.892;9.138;2022-09-27T10:25:06;96627.16;;;13.84;100.00
36538;BME280;22545;48.892;9.138;2022-09-27T10:27:41;96638.66;;;13.79;100.00
36538;BME280;22545;48.892;9.138;2022-09-27T10:30:27;96650.25;;;13.74;100.00
36538;BME280;22545;48.892;9.138;2022-09-27T10:32:55;96641.13;;;13.33;100.00
36538;BME280;22545;48.892;9.138;2022-09-27T10:37:53;96650.72;;;12.81;100.00
36538;BME280;22545;48.892;9.138;2022-09-27T10:40:28;96645.66;;;12.92;100.00
36538;BME280;22545;48.892;9.138;2022-09-27T10:42:54;96644.34;;;12.61;100.00
36538;BME280;22545;48.892;9.138;2022-09-27T10:45:26;96642.94;;;12.44;100.00
36538;BME280;22545;48.892;9.138;2022-09-27T10:47:52;96633.63;;;12.41;100.00
36538;BME280;22545;48.892;9.138;2022-09-27T10:50:18;96639.09;;;12.24;100.00
36538;BME280;22545;48.892;9.138;2022-09-27T10:52:49;96640.03;;;12.23;100.00
36538;BME280;22545;48.892;9.138;2022-09-27T10:55:25;96633.94;;;12.11;100.00
36538;BME280;22545;48.892;9.138;2022-09-27T10:57:52;96636.94;;;12.43;100.00
36538;BME280;22545;48.892;9.138;2022-09-27T11:02:43;96619.16;;;12.64;100.00
36538;BME280;22545;48.892;9.138;2022-09-27T11:07:54;96622.59;;;12.00;100.00
36538;BME280;22545;48.892;9.138;2022-09-27T11:13:11;96629.94;;;11.92;100.00
36538;BME280;22545;48.892;9.138;2022-09-27T11:15:50;96617.00;;;11.66;100.00
36538;BME280;22545;48.892;9.138;2022-09-27T11:18:24;96629.88;;;11.54;100.00
36538;BME280;22545;48.892;9.138;2022-09-27T11:23:38;96617.72;;;11.28;100.00
36538;BME280;22545;48.892;9.138;2022-09-27T11:26:53;96614.66;;;11.36;100.00
36538;BME280;22545;48.892;9.138;2022-09-27T11:29:02;96610.09;;;11.27;100.00
36538;BME280;22545;48.892;9.138;2022-09-27T11:31:38;96594.13;;;11.49;100.00
36538;BME280;22545;48.892;9.138;2022-09-27T11:34:14;96605.38;;;11.33;100.00
36538;BME280;22545;48.892;9.138;2022-09-27T11:42:15;96616.56;;;10.63;100.00
36538;BME280;22545;48.892;9.138;2022-09-27T11:50:20;96649.75;;;9.63;100.00
36538;BME280;22545;48.892;9.138;2022-09-27T11:55:42;96650.63;;;9.15;100.00
36538;BME280;22545;48.892;9.138;2022-09-27T12:00:55;96658.19;;;8.85;100.00
36538;BME280;22545;48.892;9.138;2022-09-27T12:08:29;96658.31;;;8.99;100.00
36538;BME280;22545;48.892;9.138;2022-09-27T12:11:17;96653.59;;;9.24;100.00
36538;BME280;22545;48.892;9.138;2022-09-27T12:13:51;96644.47;;;9.50;100.00
36538;BME280;22545;48.892;9.138;2022-09-27T12:16:19;96648.25;;;9.74;100.00
36538;BME280;22545;48.892;9.138;2022-09-27T12:18:46;96648.09;;;9.62;100.00
36538;BME280;22545;48.892;9.138;2022-09-27T12:21:12;96650.41;;;9.66;100.00
36538;BME280;22545;48.892;9.138;2022-09-27T12:26:12;96638.34;;;9.52;100.00
36538;BME280;22545;48.892;9.138;2022-09-27T12:28:42;96646.22;;;9.49;100.00
36538;BME280;22545;48.892;9.138;2022-09-27T12:31:15;96639.50;;;9.47;100.00
36538;BME280;22545;48.892;9.138;2022-09-27T12:33:44;96644.97;;;9.56;100.00
36538;BME280;22545;48.892;9.138;2022-09-27T12:36:14;96637.34;;;9.55;100.00
36538;BME280;22545;48.892;9.138;2022-09-27T12:41:06;96636.47;;;9.40;100.00
36538;BME280;22545;48.892;9.138;2022-09-27T12:43:34;96567.50;;;9.03;100.00
36538;BME280;22545;48.892;9.138;2022-09-27T12:48:33;96632.69;;;9.62;100.00
36538;BME280;22545;48.892;9.138;2022-09-27T12:51:15;96627.72;;;9.59;100.00
36538;BME280;22545;48.892;9.138;2022-09-27T13:01:43;96620.88;;;9.89;100.00
36538;BME280;22545;48.892;9.138;2022-09-27T13:04:04;96618.50;;;10.01;100.00
36538;BME280;22545;48.892;9.138;2022-09-27T13:12:21;96631.91;;;10.06;100.00
36538;BME280;22545;48.892;9.138;2022-09-27T13:15:05;96625.66;;;9.96;100.00
36538;BME280;22545;48.892;9.138;2022-09-27T13:22:52;96628.13;;;9.36;100.00
36538;BME280;22545;48.892;9.138;2022-09-27T13:28:16;96614.22;;;9.25;100.00
36538;BME280;22545;48.892;9.138;2022-09-27T13:30:49;96615.69;;;9.29;100.00
36538;BME280;22545;48.892;9.138;2022-09-27T13:35:41;96601.91;;;9.15;100.00
36538;BME280;22545;48.892;9.138;2022-09-27T13:38:19;96603.78;;;9.28;100.00
36538;BME280;22545;48.892;9.138;2022-09-27T13:40:45;96597.63;;;9.30;100.00
36538;BME280;22545;48.892;9.138;2022-09-27T13:48:21;96608.84;;;9.29;100.00
36538;BME280;22545;48.892;9.138;2022-09-27T13:50:54;96609.91;;;9.41;100.00
36538;BME280;22545;48.892;9.138;2022-09-27T13:55:49;96618.97;;;9.47;100.00
36538;BME280;22545;48.892;9.138;2022-09-27T14:00:44;96603.81;;;9.58;100.00
36538;BME280;22545;48.892;9.138;2022-09-27T14:05:57;96606.63;;;9.53;100.00
36538;BME280;22545;48.892;9.138;2022-09-27T14:08:28;96596.19;;;9.56;100.00
36538;BME280;22545;48.892;9.138;2022-09-27T14:10:54;96592.41;;;9.78;100.00
36538;BME280;22545;48.892;9.138;2022-09-27T14:13:20;96594.41;;;9.73;100.00
36538;BME280;22545;48.892;9.138;2022-09-27T14:15:46;96594.41;;;9.73;100.00
36538;BME280;22545;48.892;9.138;2022-09-27T14:18:14;96593.66;;;10.01;100.00
36538;BME280;22545;48.892;9.138;2022-09-27T14:20:40;96601.97;;;9.90;100.00
36538;BME280;22545;48.892;9.138;2022-09-27T14:23:12;96595.38;;;9.86;100.00
36538;BME280;22545;48.892;9.138;2022-09-27T14:25:44;96599.69;;;10.00;100.00
36538;BME280;22545;48.892;9.138;2022-09-27T14:28:23;96592.66;;;9.73;100.00
36538;BME280;22545;48.892;9.138;2022-09-27T14:31:03;96585.81;;;9.88;100.00
36538;BME280;22545;48.892;9.138;2022-09-27T14:33:30;96523.94;;;9.48;100.00
36538;BME280;22545;48.892;9.138;2022-09-27T14:35:55;96595.31;;;9.72;100.00
36538;BME280;22545;48.892;9.138;2022-09-27T14:38:39;96585.47;;;9.95;100.00
36538;BME280;22545;48.892;9.138;2022-09-27T14:41:06;96597.75;;;10.04;100.00
36538;BME280;22545;48.892;9.138;2022-09-27T14:43:32;96596.22;;;10.01;100.00
36538;BME280;22545;48.892;9.138;2022-09-27T14:45:59;96593.66;;;10.01;100.00
36538;BME280;22545;48.892;9.138;2022-09-27T14:48:29;96589.53;;;10.27;100.00
36538;BME280;22545;48.892;9.138;2022-09-27T14:51:03;96581.03;;;10.41;100.00
36538;BME280;22545;48.892;9.138;2022-09-27T14:53:31;96579.75;;;10.49;100.00
36538;BME280;22545;48.892;9.138;2022-09-27T14:55:57;96593.50;;;10.76;100.00
36538;BME280;22545;48.892;9.138;2022-09-27T14:58:23;96587.59;;;10.89;100.00
36538;BME280;22545;48.892;9.138;2022-09-27T15:00:53;96593.13;;;10.68;100.00
36538;BME280;22545;48.892;9.138;2022-09-27T15:03:22;96587.75;;;10.58;100.00
36538;BME280;22545;48.892;9.138;2022-09-27T15:05:48;96581.00;;;10.70;100.00
36538;BME280;22545;48.892;9.138;2022-09-27T15:08:14;96599.00;;;10.85;100.00
36538;BME280;22545;48.892;9.138;2022-09-27T15:10:39;96597.03;;;11.03;100.00
36538;BME280;22545;48.892;9.138;2022-09-27T15:13:05;96605.78;;;10.86;100.00
36538;BME280;22545;48.892;9.138;2022-09-27T15:15:34;96604.88;;;10.72;100.00
36538;BME280;22545;48.892;9.138;2022-09-27T15:18:00;96606.72;;;10.70;100.00
36538;BME280;22545;48.892;9.138;2022-09-27T15:20:27;96616.28;;;10.68;100.00
36538;BME280;22545;48.892;9.138;2022-09-27T15:22:56;96601.94;;;10.64;100.00
36538;BME280;22545;48.892;9.138;2022-09-27T15:27:56;96611.22;;;10.52;100.00
36538;BME280;22545;48.892;9.138;2022-09-27T15:30:33;96613.19;;;10.34;100.00